createdAt,value
2023-04-16T00:01:53.704Z,15.27
2023-04-16T00:04:20.376Z,15.27
2023-04-16T00:06:47.045Z,14.33
2023-04-16T00:09:13.569Z,15.27
2023-04-16T00:11:40.107Z,14.20
2023-04-16T00:14:06.573Z,17.00
2023-04-16T00:16:33.473Z,15.20
2023-04-16T00:19:00.044Z,15.20
2023-04-16T00:21:26.657Z,15.98
2023-04-16T00:23:53.550Z,16.10
2023-04-16T00:26:20.020Z,16.20
2023-04-16T00:28:46.430Z,16.10
2023-04-16T00:31:13.075Z,16.10
2023-04-16T00:33:39.690Z,15.03
2023-04-16T00:36:06.920Z,17.20
2023-04-16T00:38:33.480Z,16.55
2023-04-16T00:40:59.980Z,16.93
2023-04-16T00:43:27.249Z,15.80
2023-04-16T00:45:56.698Z,15.65
2023-04-16T00:48:23.666Z,17.25
2023-04-16T00:50:51.343Z,17.52
2023-04-16T00:53:17.879Z,17.17
2023-04-16T00:55:44.741Z,17.80
2023-04-16T00:58:11.492Z,19.80
2023-04-16T01:00:38.041Z,20.20
2023-04-16T01:03:05.469Z,20.13
2023-04-16T01:08:02.489Z,18.20
2023-04-16T01:10:29.112Z,18.98
2023-04-16T01:12:55.651Z,20.17
2023-04-16T01:15:22.366Z,19.30
2023-04-16T01:17:48.925Z,19.42
2023-04-16T01:20:15.643Z,19.63
2023-04-16T01:22:42.833Z,20.25
2023-04-16T01:25:13.504Z,20.02
2023-04-16T01:27:40.039Z,19.45
2023-04-16T01:30:07.320Z,20.13
2023-04-16T01:32:33.912Z,20.17
2023-04-16T01:35:00.426Z,21.77
2023-04-16T01:37:26.979Z,20.25
2023-04-16T01:39:53.566Z,21.60
2023-04-16T01:42:20.122Z,20.70
2023-04-16T01:44:47.509Z,21.47
2023-04-16T01:47:14.341Z,22.02
2023-04-16T01:49:41.136Z,21.52
2023-04-16T01:52:08.463Z,22.80
2023-04-16T01:54:36.014Z,22.63
2023-04-16T01:59:29.725Z,21.63
2023-04-16T02:01:58.502Z,20.23
2023-04-16T02:04:24.997Z,22.02
2023-04-16T02:06:52.500Z,23.08
2023-04-16T02:11:47.408Z,21.90
2023-04-16T02:16:40.406Z,21.15
2023-04-16T02:19:07.232Z,20.90
2023-04-16T02:21:33.888Z,21.85
2023-04-16T02:24:00.498Z,21.40
2023-04-16T02:26:27.054Z,20.37
2023-04-16T02:28:53.645Z,21.10
2023-04-16T02:31:22.023Z,21.47
2023-04-16T02:33:48.859Z,19.30
2023-04-16T02:36:15.596Z,21.25
2023-04-16T02:38:42.140Z,20.95
2023-04-16T02:41:08.628Z,20.67
2023-04-16T02:43:35.105Z,21.05
2023-04-16T02:46:01.779Z,21.38
2023-04-16T02:48:28.369Z,21.70
2023-04-16T02:50:54.925Z,20.90
2023-04-16T02:53:21.499Z,22.85
2023-04-16T02:55:55.327Z,19.73
2023-04-16T02:58:24.261Z,20.50
2023-04-16T03:00:51.894Z,22.05
2023-04-16T03:03:18.544Z,22.08
2023-04-16T03:05:45.611Z,21.70
2023-04-16T03:08:12.159Z,22.23
2023-04-16T03:10:38.886Z,22.03
2023-04-16T03:13:06.587Z,20.55
2023-04-16T03:15:33.600Z,22.65
2023-04-16T03:18:00.473Z,21.88
2023-04-16T03:20:27.160Z,21.48
2023-04-16T03:22:53.727Z,22.63
2023-04-16T03:25:20.880Z,21.63
2023-04-16T03:27:47.425Z,22.20
2023-04-16T03:30:14.879Z,19.88
2023-04-16T03:35:09.347Z,21.85
2023-04-16T03:37:36.070Z,22.05
2023-04-16T03:40:02.538Z,22.23
2023-04-16T03:42:29.025Z,21.58
2023-04-16T03:44:55.576Z,23.05
2023-04-16T03:47:22.092Z,22.55
2023-04-16T03:49:48.642Z,22.92
2023-04-16T03:52:15.122Z,23.60
2023-04-16T03:54:41.635Z,22.88
2023-04-16T03:57:08.514Z,23.77
2023-04-16T03:59:35.072Z,24.27
2023-04-16T04:02:02.661Z,25.80
2023-04-16T04:04:29.346Z,23.90
2023-04-16T04:06:56.924Z,24.90
2023-04-16T04:11:50.640Z,23.00
2023-04-16T04:14:17.266Z,23.75
2023-04-16T04:16:43.817Z,22.63
2023-04-16T04:19:10.749Z,25.97
2023-04-16T04:21:37.440Z,25.63
2023-04-16T04:24:04.031Z,24.88
2023-04-16T04:26:30.635Z,24.00
2023-04-16T04:28:57.224Z,24.07
2023-04-16T04:31:23.851Z,24.70
2023-04-16T04:33:50.513Z,26.25
2023-04-16T04:36:17.344Z,23.63
2023-04-16T04:38:43.799Z,25.20
2023-04-16T04:41:10.251Z,25.23
2023-04-16T04:43:36.739Z,24.95
2023-04-16T04:46:03.352Z,24.08
2023-04-16T04:48:29.945Z,24.77
2023-04-16T04:51:00.795Z,24.65
2023-04-16T04:53:28.038Z,25.33
2023-04-16T04:55:57.532Z,23.95
2023-04-16T04:58:32.943Z,25.02
2023-04-16T05:03:26.369Z,24.73
2023-04-16T05:05:53.909Z,26.60
2023-04-16T05:10:53.328Z,26.17
2023-04-16T05:13:21.834Z,26.33
2023-04-16T05:15:48.316Z,23.85
2023-04-16T05:18:17.834Z,25.40
2023-04-16T05:20:49.562Z,26.35
2023-04-16T05:23:16.223Z,27.67
2023-04-16T05:25:43.046Z,25.77
2023-04-16T05:28:10.367Z,24.92
2023-04-16T05:30:38.946Z,27.13
2023-04-16T05:33:05.827Z,26.10
2023-04-16T05:35:32.291Z,26.65
2023-04-16T05:37:58.763Z,26.77
2023-04-16T05:40:25.309Z,26.90
2023-04-16T05:43:02.261Z,26.58
2023-04-16T05:45:28.681Z,27.02
2023-04-16T05:48:00.860Z,26.58
2023-04-16T05:50:27.349Z,26.35
2023-04-16T05:52:53.799Z,25.00
2023-04-16T05:55:20.347Z,26.30
2023-04-16T05:57:47.785Z,26.97
2023-04-16T06:00:14.414Z,26.38
2023-04-16T06:02:41.179Z,26.70
2023-04-16T06:05:08.249Z,26.60
2023-04-16T06:07:34.728Z,24.73
2023-04-16T06:10:01.201Z,25.00
2023-04-16T06:12:27.664Z,26.17
2023-04-16T06:14:54.096Z,26.05
2023-04-16T06:17:21.293Z,25.15
2023-04-16T06:19:48.200Z,25.23
2023-04-16T06:22:15.042Z,25.55
2023-04-16T06:24:49.139Z,22.40
2023-04-16T06:27:15.730Z,25.25
2023-04-16T06:29:42.145Z,23.73
2023-04-16T06:32:09.514Z,24.20
2023-04-16T06:34:38.551Z,23.40
2023-04-16T06:37:05.019Z,24.27
2023-04-16T06:39:32.293Z,24.65
2023-04-16T06:41:59.007Z,23.55
2023-04-16T06:44:25.509Z,22.40
2023-04-16T06:46:52.453Z,22.25
2023-04-16T06:49:19.317Z,23.83
2023-04-16T06:51:46.268Z,23.73
2023-04-16T06:54:12.678Z,21.50
2023-04-16T06:56:39.498Z,22.25
2023-04-16T06:59:07.848Z,19.63
2023-04-16T07:01:34.680Z,19.60
2023-04-16T07:04:04.354Z,19.90
2023-04-16T07:06:32.011Z,20.50
2023-04-16T07:08:58.474Z,20.25
2023-04-16T07:11:26.005Z,20.02
2023-04-16T07:13:53.840Z,19.95
2023-04-16T07:16:21.480Z,20.27
2023-04-16T07:18:47.962Z,20.20
2023-04-16T07:21:16.425Z,19.88
2023-04-16T07:23:42.860Z,21.08
2023-04-16T07:26:11.692Z,21.13
2023-04-16T07:28:38.440Z,21.27
2023-04-16T07:31:05.119Z,21.58
2023-04-16T07:33:31.582Z,21.20
2023-04-16T07:35:58.031Z,20.58
2023-04-16T07:38:30.434Z,20.75
2023-04-16T07:40:58.306Z,22.35
2023-04-16T07:43:24.761Z,21.65
2023-04-16T07:45:51.231Z,19.33
2023-04-16T07:48:17.652Z,19.77
2023-04-16T07:50:44.415Z,19.48
2023-04-16T07:53:10.950Z,21.13
2023-04-16T07:55:39.486Z,21.43
2023-04-16T07:58:07.885Z,20.70
2023-04-16T08:00:34.410Z,23.42
2023-04-16T08:03:05.271Z,23.20
2023-04-16T08:05:31.857Z,21.98
2023-04-16T08:07:58.624Z,21.60
2023-04-16T08:10:25.386Z,21.63
2023-04-16T08:12:54.245Z,22.75
2023-04-16T08:15:21.106Z,21.15
2023-04-16T08:17:49.913Z,22.85
2023-04-16T08:20:19.540Z,20.92
2023-04-16T08:22:51.293Z,21.42
2023-04-16T08:25:17.908Z,20.77
2023-04-16T08:27:44.479Z,21.40
2023-04-16T08:30:11.066Z,20.80
2023-04-16T08:32:38.157Z,21.27
2023-04-16T08:35:07.904Z,21.00
2023-04-16T08:37:34.378Z,20.83
2023-04-16T08:40:04.631Z,21.85
2023-04-16T08:42:33.266Z,20.98
2023-04-16T08:45:16.683Z,19.98
2023-04-16T08:47:49.294Z,19.63
2023-04-16T08:50:17.680Z,20.80
2023-04-16T08:52:57.962Z,21.02
2023-04-16T08:55:43.609Z,22.25
2023-04-16T08:58:30.588Z,20.88
2023-04-16T09:00:57.316Z,20.05
2023-04-16T09:03:24.014Z,21.08
2023-04-16T09:05:51.645Z,20.92
2023-04-16T09:08:18.505Z,19.70
2023-04-16T09:10:46.076Z,21.08
2023-04-16T09:13:13.541Z,21.73
2023-04-16T09:18:08.708Z,19.93
2023-04-16T09:20:35.430Z,20.38
2023-04-16T09:23:01.972Z,20.63
2023-04-16T09:25:32.902Z,19.35
2023-04-16T09:27:59.565Z,18.55
2023-04-16T09:30:28.881Z,20.60
2023-04-16T09:33:22.071Z,17.95
2023-04-16T09:35:50.413Z,18.23
2023-04-16T09:38:17.867Z,19.35
2023-04-16T09:40:44.409Z,19.00
2023-04-16T09:43:14.611Z,17.83
2023-04-16T09:45:54.724Z,18.98
2023-04-16T09:48:34.281Z,17.67
2023-04-16T09:51:07.643Z,17.95
2023-04-16T09:53:36.448Z,16.77
2023-04-16T09:56:15.517Z,18.08
2023-04-16T09:58:42.249Z,18.13
2023-04-16T10:01:11.082Z,18.13
2023-04-16T10:03:40.339Z,18.27
2023-04-16T10:06:08.173Z,18.35
2023-04-16T10:08:36.837Z,17.67
2023-04-16T10:11:04.891Z,16.77
2023-04-16T10:13:32.329Z,17.05
2023-04-16T10:16:00.672Z,16.48
2023-04-16T10:18:29.390Z,16.13
2023-04-16T10:20:58.039Z,17.75
2023-04-16T10:23:34.352Z,17.20
2023-04-16T10:26:02.229Z,18.05
2023-04-16T10:28:35.331Z,17.00
2023-04-16T10:31:04.496Z,17.48
2023-04-16T10:33:40.651Z,16.33
2023-04-16T10:36:13.348Z,16.58
2023-04-16T10:38:41.704Z,16.20
2023-04-16T10:41:12.153Z,17.45
2023-04-16T10:43:44.127Z,17.85
2023-04-16T10:46:27.620Z,16.33
2023-04-16T10:48:56.464Z,17.30
2023-04-16T10:51:24.249Z,17.45
2023-04-16T10:53:50.969Z,16.85
2023-04-16T10:56:26.718Z,16.60
2023-04-16T10:58:58.094Z,16.05
2023-04-16T11:01:35.873Z,17.38
2023-04-16T11:04:25.177Z,16.65
2023-04-16T11:07:07.088Z,16.48
2023-04-16T11:09:53.480Z,16.50
2023-04-16T11:12:34.777Z,15.13
2023-04-16T11:15:06.317Z,15.38
2023-04-16T11:17:45.286Z,15.55
2023-04-16T11:20:23.243Z,16.15
2023-04-16T11:22:58.590Z,16.15
2023-04-16T11:25:34.284Z,16.55
2023-04-16T11:28:03.190Z,16.90
2023-04-16T11:30:39.316Z,15.77
2023-04-16T11:33:11.263Z,15.93
2023-04-16T11:35:39.603Z,15.82
2023-04-16T11:38:07.158Z,16.25
2023-04-16T11:40:34.241Z,15.75
2023-04-16T11:43:14.147Z,15.38
2023-04-16T11:45:55.864Z,14.45
2023-04-16T11:48:23.308Z,15.30
2023-04-16T11:50:59.177Z,13.82
2023-04-16T11:53:26.989Z,15.15
2023-04-16T11:55:54.568Z,14.32
2023-04-16T11:58:22.355Z,14.80
2023-04-16T12:00:53.366Z,13.48
2023-04-16T12:03:38.142Z,14.88
2023-04-16T12:06:09.631Z,15.32
2023-04-16T12:08:37.276Z,14.23
2023-04-16T12:11:04.533Z,14.80
2023-04-16T12:13:31.053Z,14.43
2023-04-16T12:15:59.809Z,14.85
2023-04-16T12:18:29.342Z,14.75
2023-04-16T12:20:56.042Z,14.27
2023-04-16T12:23:30.538Z,15.10
2023-04-16T12:26:02.243Z,13.07
2023-04-16T12:28:30.952Z,13.40
2023-04-16T12:30:57.767Z,14.50
2023-04-16T12:35:51.098Z,13.77
2023-04-16T12:40:44.160Z,12.52
2023-04-16T12:45:38.130Z,12.75
2023-04-16T12:48:04.831Z,12.32
2023-04-16T12:50:31.443Z,11.57
2023-04-16T12:55:25.565Z,12.93
2023-04-16T12:57:55.032Z,13.35
2023-04-16T13:00:22.013Z,11.93
2023-04-16T13:02:48.719Z,11.82
2023-04-16T13:07:43.240Z,11.38
2023-04-16T13:10:10.394Z,11.85
2023-04-16T13:12:36.900Z,12.75
2023-04-16T13:15:03.576Z,12.10
2023-04-16T13:17:30.063Z,14.50
2023-04-16T13:19:56.473Z,12.15
2023-04-16T13:22:22.940Z,12.57
2023-04-16T13:24:49.777Z,11.40
2023-04-16T13:27:16.889Z,12.25
2023-04-16T13:29:43.274Z,12.90
2023-04-16T13:32:13.968Z,12.65
2023-04-16T13:34:40.764Z,13.50
2023-04-16T13:37:07.218Z,12.52
2023-04-16T13:39:33.794Z,12.82
2023-04-16T13:42:00.635Z,12.80
2023-04-16T13:44:27.364Z,12.90
2023-04-16T13:46:53.888Z,13.68
2023-04-16T13:49:20.381Z,11.85
2023-04-16T13:51:46.947Z,12.48
2023-04-16T13:54:13.448Z,12.77
2023-04-16T13:56:39.963Z,13.18
2023-04-16T13:59:06.450Z,12.98
2023-04-16T14:01:33.099Z,13.60
2023-04-16T14:04:08.702Z,14.57
2023-04-16T14:06:35.512Z,13.98
2023-04-16T14:09:02.025Z,15.05
2023-04-16T14:11:28.596Z,15.18
2023-04-16T14:13:55.541Z,15.75
2023-04-16T14:16:22.142Z,16.02
2023-04-16T14:18:48.815Z,15.20
2023-04-16T14:21:15.675Z,16.52
2023-04-16T14:23:42.219Z,14.65
2023-04-16T14:26:08.692Z,15.30
2023-04-16T14:28:35.763Z,16.35
2023-04-16T14:31:02.346Z,16.70
2023-04-16T14:33:28.875Z,15.88
2023-04-16T14:35:55.458Z,15.50
2023-04-16T14:38:21.845Z,15.85
2023-04-16T14:40:48.594Z,16.50
2023-04-16T14:43:15.448Z,16.45
2023-04-16T14:45:41.898Z,15.63
2023-04-16T14:48:08.588Z,16.17
2023-04-16T14:50:38.834Z,16.73
2023-04-16T14:53:05.633Z,16.35
2023-04-16T14:55:32.533Z,16.05
2023-04-16T14:57:59.698Z,15.98
2023-04-16T15:02:54.635Z,14.98
2023-04-16T15:05:21.692Z,15.85
2023-04-16T15:07:48.127Z,16.55
2023-04-16T15:10:14.641Z,16.87
2023-04-16T15:12:41.127Z,17.02
2023-04-16T15:15:08.630Z,17.40
2023-04-16T15:17:35.483Z,16.92
2023-04-16T15:20:02.088Z,16.08
2023-04-16T15:22:28.669Z,17.45
2023-04-16T15:24:55.188Z,17.48
2023-04-16T15:27:21.629Z,17.67
2023-04-16T15:29:49.324Z,15.20
2023-04-16T15:32:15.826Z,16.75
2023-04-16T15:34:42.301Z,16.33
2023-04-16T15:37:09.654Z,16.33
2023-04-16T15:42:06.991Z,15.20
2023-04-16T15:44:33.984Z,13.88
2023-04-16T15:47:00.527Z,14.07
2023-04-16T15:49:27.016Z,13.38
2023-04-16T15:51:53.559Z,14.93
2023-04-16T15:54:20.010Z,14.25
2023-04-16T15:56:46.855Z,13.97
2023-04-16T15:59:13.599Z,14.52
2023-04-16T16:01:40.214Z,15.45
2023-04-16T16:04:07.969Z,15.65
2023-04-16T16:06:34.911Z,15.98
2023-04-16T16:09:01.762Z,16.52
2023-04-16T16:11:28.387Z,15.80
2023-04-16T16:13:55.076Z,15.02
2023-04-16T16:16:21.882Z,13.73
2023-04-16T16:18:48.648Z,12.43
2023-04-16T16:21:15.099Z,12.75
2023-04-16T16:23:41.479Z,13.05
2023-04-16T16:26:08.054Z,15.57
2023-04-16T16:28:37.627Z,15.25
2023-04-16T16:31:05.924Z,16.13
2023-04-16T16:33:33.059Z,16.02
2023-04-16T16:35:59.516Z,16.58
2023-04-16T16:38:26.190Z,14.67
2023-04-16T16:40:52.699Z,13.18
2023-04-16T16:43:19.300Z,15.57
2023-04-16T16:45:46.472Z,14.57
2023-04-16T16:48:12.917Z,15.05
2023-04-16T16:50:39.494Z,14.03
2023-04-16T16:53:06.205Z,13.40
2023-04-16T16:55:32.621Z,11.60
2023-04-16T16:57:59.069Z,13.10
2023-04-16T17:00:25.562Z,13.15
2023-04-16T17:02:52.438Z,13.38
2023-04-16T17:05:19.272Z,14.77
2023-04-16T17:07:45.843Z,17.63
2023-04-16T17:10:15.810Z,15.65
2023-04-16T17:12:42.261Z,15.07
2023-04-16T17:15:09.332Z,13.57
2023-04-16T17:17:35.984Z,14.80
2023-04-16T17:20:08.682Z,14.15
2023-04-16T17:22:35.333Z,13.73
2023-04-16T17:25:01.872Z,14.63
2023-04-16T17:27:29.389Z,12.63
2023-04-16T17:29:59.983Z,14.40
2023-04-16T17:32:27.063Z,13.93
2023-04-16T17:34:56.616Z,14.00
2023-04-16T17:37:23.476Z,14.23
2023-04-16T17:39:51.011Z,13.95
2023-04-16T17:42:17.739Z,13.98
2023-04-16T17:44:44.422Z,14.80
2023-04-16T17:47:10.871Z,14.65
2023-04-16T17:49:37.321Z,16.40
2023-04-16T17:52:04.002Z,16.30
2023-04-16T17:54:30.523Z,15.37
2023-04-16T17:56:57.576Z,16.30
2023-04-16T17:59:24.071Z,15.63
2023-04-16T18:01:50.675Z,15.50
2023-04-16T18:04:17.995Z,16.02
2023-04-16T18:06:44.799Z,16.63
2023-04-16T18:09:12.002Z,17.77
2023-04-16T18:11:38.560Z,17.33
2023-04-16T18:14:05.304Z,16.88
2023-04-16T18:16:32.204Z,18.20
2023-04-16T18:18:59.069Z,18.58
2023-04-16T18:21:25.944Z,18.98
2023-04-16T18:23:52.446Z,19.10
2023-04-16T18:26:21.116Z,19.83
2023-04-16T18:28:49.276Z,20.48
2023-04-16T18:31:15.953Z,20.25
2023-04-16T18:33:54.061Z,20.50
2023-04-16T18:36:23.665Z,20.25
2023-04-16T18:39:01.013Z,20.13
2023-04-16T18:41:28.702Z,20.90
2023-04-16T18:43:55.337Z,20.70
2023-04-16T18:46:21.888Z,20.75
2023-04-16T18:48:48.355Z,20.55
2023-04-16T18:51:16.293Z,19.77
2023-04-16T18:53:44.294Z,21.50
2023-04-16T18:56:11.563Z,19.88
2023-04-16T18:58:38.160Z,21.27
2023-04-16T19:01:05.257Z,20.55
2023-04-16T19:03:32.297Z,20.70
2023-04-16T19:05:58.971Z,20.80
2023-04-16T19:08:25.411Z,20.43
2023-04-16T19:10:52.077Z,20.60
2023-04-16T19:13:18.525Z,21.30
2023-04-16T19:15:45.338Z,21.27
2023-04-16T19:18:11.856Z,22.52
2023-04-16T19:20:39.445Z,23.63
2023-04-16T19:23:08.299Z,23.00
2023-04-16T19:25:36.427Z,21.88
2023-04-16T19:28:03.761Z,22.77
2023-04-16T19:30:31.076Z,22.42
2023-04-16T19:32:57.852Z,22.55
2023-04-16T19:35:24.429Z,22.42
2023-04-16T19:37:51.135Z,22.77
2023-04-16T19:40:17.674Z,22.92
2023-04-16T19:42:45.460Z,21.70
2023-04-16T19:45:12.047Z,24.67
2023-04-16T19:47:38.619Z,24.73
2023-04-16T19:50:05.843Z,24.23
2023-04-16T19:52:37.308Z,22.60
2023-04-16T19:55:04.465Z,24.40
2023-04-16T19:57:30.929Z,23.77
2023-04-16T19:59:57.433Z,24.10
2023-04-16T20:02:24.031Z,25.17
2023-04-16T20:04:50.738Z,24.80
2023-04-16T20:07:17.514Z,24.17
2023-04-16T20:09:44.062Z,27.23
2023-04-16T20:12:10.800Z,26.93
2023-04-16T20:14:37.207Z,27.10
2023-04-16T20:17:03.824Z,25.50
2023-04-16T20:19:33.729Z,25.38
2023-04-16T20:22:00.147Z,24.40
2023-04-16T20:24:26.580Z,23.95
2023-04-16T20:26:52.967Z,25.83
2023-04-16T20:29:19.439Z,25.00
2023-04-16T20:31:46.169Z,23.58
2023-04-16T20:34:12.839Z,23.92
2023-04-16T20:36:39.226Z,24.60
2023-04-16T20:39:07.266Z,24.45
2023-04-16T20:41:33.974Z,23.80
2023-04-16T20:44:05.223Z,22.65
2023-04-16T20:46:34.093Z,21.90
2023-04-16T20:49:03.234Z,23.55
2023-04-16T20:51:29.760Z,23.02
2023-04-16T20:53:56.316Z,23.13
2023-04-16T20:56:22.766Z,21.57
2023-04-16T20:58:49.160Z,24.35
2023-04-16T21:01:16.284Z,24.20
2023-04-16T21:03:42.939Z,23.35
2023-04-16T21:06:09.552Z,21.88
2023-04-16T21:08:36.153Z,22.40
2023-04-16T21:11:02.585Z,21.27
2023-04-16T21:13:29.002Z,21.95
2023-04-16T21:15:55.465Z,23.10
2023-04-16T21:18:21.941Z,22.60
2023-04-16T21:20:48.318Z,23.27
2023-04-16T21:23:14.721Z,22.88
2023-04-16T21:25:41.113Z,22.90
2023-04-16T21:28:07.654Z,21.83
2023-04-16T21:30:34.120Z,22.33
2023-04-16T21:33:00.721Z,22.80
2023-04-16T21:35:27.322Z,22.50
2023-04-16T21:37:53.716Z,22.47
2023-04-16T21:40:20.290Z,23.15
2023-04-16T21:42:46.766Z,21.63
2023-04-16T21:45:14.517Z,23.80
2023-04-16T21:47:41.089Z,22.98
2023-04-16T21:50:08.203Z,21.70
2023-04-16T21:52:40.109Z,22.52
2023-04-16T21:55:09.148Z,22.17
2023-04-16T21:57:35.575Z,22.20
2023-04-16T22:00:02.396Z,23.02
2023-04-16T22:02:28.997Z,21.35
2023-04-16T22:04:55.654Z,22.90
2023-04-16T22:07:22.095Z,21.93
2023-04-16T22:09:48.494Z,21.42
2023-04-16T22:12:15.010Z,23.27
2023-04-16T22:14:49.192Z,22.85
2023-04-16T22:17:27.542Z,22.88
2023-04-16T22:19:54.492Z,22.38
2023-04-16T22:22:21.916Z,22.35
2023-04-16T22:27:15.027Z,22.73
2023-04-16T22:29:41.556Z,22.40
2023-04-16T22:32:08.247Z,21.50
2023-04-16T22:34:34.767Z,23.83
2023-04-16T22:37:02.891Z,21.20
2023-04-16T22:39:30.088Z,22.50
2023-04-16T22:41:56.714Z,21.42
2023-04-16T22:44:23.154Z,22.25
2023-04-16T22:46:49.551Z,21.80
2023-04-16T22:49:15.955Z,22.42
2023-04-16T22:51:42.681Z,22.15
2023-04-16T22:54:13.675Z,22.42
2023-04-16T22:56:40.752Z,21.10
2023-04-16T22:59:07.228Z,19.92
2023-04-16T23:01:34.553Z,20.75
2023-04-16T23:04:00.971Z,21.80
2023-04-16T23:06:27.820Z,22.23
2023-04-16T23:08:54.272Z,21.40
2023-04-16T23:11:20.882Z,21.65
2023-04-16T23:13:47.313Z,22.43
2023-04-16T23:16:13.838Z,21.20
2023-04-16T23:18:40.283Z,20.70
2023-04-16T23:21:06.686Z,22.40
2023-04-16T23:23:33.319Z,22.20
2023-04-16T23:26:00.894Z,23.10
2023-04-16T23:30:53.976Z,21.33
2023-04-16T23:33:20.776Z,22.88
2023-04-16T23:35:47.679Z,22.58
2023-04-16T23:38:14.160Z,22.08
2023-04-16T23:40:40.650Z,22.10
2023-04-16T23:43:07.041Z,22.73
2023-04-16T23:45:33.547Z,23.00
2023-04-16T23:48:00.073Z,23.70
2023-04-16T23:50:26.537Z,23.48
2023-04-16T23:52:52.956Z,23.48
2023-04-16T23:55:19.479Z,22.58
2023-04-16T23:57:46.285Z,23.13
